sensor_id;sensor_type;location;lat;lon;timestamp;P1;durP1;ratioP1;P2;durP2;ratioP2
48849;SDS011;63210;53.370;6.770;2024-02-21T00:02:21;15.77;;;4.35;;
48849;SDS011;63210;53.370;6.770;2024-02-21T00:04:47;18.98;;;4.55;;
48849;SDS011;63210;53.370;6.770;2024-02-21T00:07:12;19.40;;;4.47;;
48849;SDS011;63210;53.370;6.770;2024-02-21T00:09:39;15.80;;;4.57;;
48849;SDS011;63210;53.370;6.770;2024-02-21T00:12:04;16.98;;;3.92;;
48849;SDS011;63210;53.370;6.770;2024-02-21T00:14:30;17.98;;;3.85;;
48849;SDS011;63210;53.370;6.770;2024-02-21T00:16:58;16.30;;;4.55;;
48849;SDS011;63210;53.370;6.770;2024-02-21T00:19:24;20.50;;;4.57;;
48849;SDS011;63210;53.370;6.770;2024-02-21T00:21:53;23.65;;;4.63;;
48849;SDS011;63210;53.370;6.770;2024-02-21T00:24:18;19.98;;;5.07;;
48849;SDS011;63210;53.370;6.770;2024-02-21T00:26:43;17.60;;;4.28;;
48849;SDS011;63210;53.370;6.770;2024-02-21T00:29:10;19.80;;;4.22;;
48849;SDS011;63210;53.370;6.770;2024-02-21T00:31:36;17.17;;;4.47;;
48849;SDS011;63210;53.370;6.770;2024-02-21T00:34:08;18.58;;;4.88;;
48849;SDS011;63210;53.370;6.770;2024-02-21T00:36:38;18.80;;;4.20;;
48849;SDS011;63210;53.370;6.770;2024-02-21T00:39:06;18.45;;;4.28;;
48849;SDS011;63210;53.370;6.770;2024-02-21T00:41:32;17.10;;;4.28;;
48849;SDS011;63210;53.370;6.770;2024-02-21T00:44:17;18.30;;;6.55;;
48849;SDS011;63210;53.370;6.770;2024-02-21T00:46:42;21.25;;;4.53;;
48849;SDS011;63210;53.370;6.770;2024-02-21T00:49:08;17.98;;;4.32;;
48849;SDS011;63210;53.370;6.770;2024-02-21T00:51:35;14.35;;;4.28;;
48849;SDS011;63210;53.370;6.770;2024-02-21T00:54:00;13.82;;;3.90;;
48849;SDS011;63210;53.370;6.770;2024-02-21T00:56:26;14.75;;;3.83;;
48849;SDS011;63210;53.370;6.770;2024-02-21T00:58:52;17.35;;;3.88;;
48849;SDS011;63210;53.370;6.770;2024-02-21T01:01:22;15.05;;;4.10;;
48849;SDS011;63210;53.370;6.770;2024-02-21T01:04:08;19.50;;;5.18;;
48849;SDS011;63210;53.370;6.770;2024-02-21T01:06:35;16.67;;;4.22;;
48849;SDS011;63210;53.370;6.770;2024-02-21T01:09:01;19.20;;;4.50;;
48849;SDS011;63210;53.370;6.770;2024-02-21T01:11:27;20.33;;;3.75;;
48849;SDS011;63210;53.370;6.770;2024-02-21T01:13:53;20.80;;;4.85;;
48849;SDS011;63210;53.370;6.770;2024-02-21T01:16:18;15.82;;;4.45;;
48849;SDS011;63210;53.370;6.770;2024-02-21T01:18:45;19.33;;;5.15;;
48849;SDS011;63210;53.370;6.770;2024-02-21T01:21:14;11.73;;;4.00;;
48849;SDS011;63210;53.370;6.770;2024-02-21T01:23:52;24.83;;;5.78;;
48849;SDS011;63210;53.370;6.770;2024-02-21T01:26:18;17.98;;;5.50;;
48849;SDS011;63210;53.370;6.770;2024-02-21T01:28:46;23.40;;;6.88;;
48849;SDS011;63210;53.370;6.770;2024-02-21T01:31:11;21.83;;;5.55;;
48849;SDS011;63210;53.370;6.770;2024-02-21T01:33:42;20.65;;;4.55;;
48849;SDS011;63210;53.370;6.770;2024-02-21T01:36:10;20.80;;;4.75;;
48849;SDS011;63210;53.370;6.770;2024-02-21T01:38:36;20.65;;;5.65;;
48849;SDS011;63210;53.370;6.770;2024-02-21T01:41:03;21.58;;;4.90;;
48849;SDS011;63210;53.370;6.770;2024-02-21T01:43:28;26.83;;;6.25;;
48849;SDS011;63210;53.370;6.770;2024-02-21T01:45:54;21.95;;;5.68;;
48849;SDS011;63210;53.370;6.770;2024-02-21T01:48:20;22.98;;;5.38;;
48849;SDS011;63210;53.370;6.770;2024-02-21T01:50:48;24.85;;;6.03;;
48849;SDS011;63210;53.370;6.770;2024-02-21T01:53:26;28.70;;;5.85;;
48849;SDS011;63210;53.370;6.770;2024-02-21T01:55:52;20.88;;;6.13;;
48849;SDS011;63210;53.370;6.770;2024-02-21T01:58:18;15.75;;;5.15;;
48849;SDS011;63210;53.370;6.770;2024-02-21T02:00:44;19.02;;;5.60;;
48849;SDS011;63210;53.370;6.770;2024-02-21T02:03:18;14.40;;;4.60;;
48849;SDS011;63210;53.370;6.770;2024-02-21T02:05:45;18.13;;;5.10;;
48849;SDS011;63210;53.370;6.770;2024-02-21T02:08:16;20.42;;;4.63;;
48849;SDS011;63210;53.370;6.770;2024-02-21T02:10:42;15.15;;;4.43;;
48849;SDS011;63210;53.370;6.770;2024-02-21T02:13:17;14.32;;;3.67;;
48849;SDS011;63210;53.370;6.770;2024-02-21T02:15:50;15.07;;;3.83;;
48849;SDS011;63210;53.370;6.770;2024-02-21T02:18:17;16.80;;;3.65;;
48849;SDS011;63210;53.370;6.770;2024-02-21T02:20:45;16.70;;;4.07;;
48849;SDS011;63210;53.370;6.770;2024-02-21T02:23:33;13.55;;;3.78;;
48849;SDS011;63210;53.370;6.770;2024-02-21T02:25:58;10.20;;;3.75;;
48849;SDS011;63210;53.370;6.770;2024-02-21T02:28:24;8.30;;;4.10;;
48849;SDS011;63210;53.370;6.770;2024-02-21T02:30:50;13.95;;;4.28;;
48849;SDS011;63210;53.370;6.770;2024-02-21T02:33:15;12.75;;;3.83;;
48849;SDS011;63210;53.370;6.770;2024-02-21T02:35:45;15.27;;;4.88;;
48849;SDS011;63210;53.370;6.770;2024-02-21T02:38:13;12.95;;;5.18;;
48849;SDS011;63210;53.370;6.770;2024-02-21T02:40:41;19.77;;;6.10;;
48849;SDS011;63210;53.370;6.770;2024-02-21T02:43:07;11.38;;;5.20;;
48849;SDS011;63210;53.370;6.770;2024-02-21T02:45:35;16.40;;;5.50;;
48849;SDS011;63210;53.370;6.770;2024-02-21T02:48:02;23.60;;;6.95;;
48849;SDS011;63210;53.370;6.770;2024-02-21T02:50:28;17.00;;;6.07;;
48849;SDS011;63210;53.370;6.770;2024-02-21T02:52:57;20.80;;;6.40;;
48849;SDS011;63210;53.370;6.770;2024-02-21T02:55:22;19.83;;;6.28;;
48849;SDS011;63210;53.370;6.770;2024-02-21T02:57:47;18.98;;;6.30;;
48849;SDS011;63210;53.370;6.770;2024-02-21T03:00:14;21.58;;;7.03;;
48849;SDS011;63210;53.370;6.770;2024-02-21T03:02:58;21.90;;;7.57;;
48849;SDS011;63210;53.370;6.770;2024-02-21T03:05:25;20.08;;;5.97;;
48849;SDS011;63210;53.370;6.770;2024-02-21T03:07:52;30.98;;;7.50;;
48849;SDS011;63210;53.370;6.770;2024-02-21T03:10:21;24.42;;;7.55;;
48849;SDS011;63210;53.370;6.770;2024-02-21T03:12:46;27.88;;;7.05;;
48849;SDS011;63210;53.370;6.770;2024-02-21T03:15:13;18.13;;;6.03;;
48849;SDS011;63210;53.370;6.770;2024-02-21T03:17:43;28.70;;;7.20;;
48849;SDS011;63210;53.370;6.770;2024-02-21T03:20:11;22.52;;;6.85;;
48849;SDS011;63210;53.370;6.770;2024-02-21T03:22:39;32.28;;;6.95;;
48849;SDS011;63210;53.370;6.770;2024-02-21T03:25:06;32.42;;;7.03;;
48849;SDS011;63210;53.370;6.770;2024-02-21T03:27:36;31.63;;;8.75;;
48849;SDS011;63210;53.370;6.770;2024-02-21T03:30:06;21.70;;;6.88;;
48849;SDS011;63210;53.370;6.770;2024-02-21T03:32:31;21.48;;;5.85;;
48849;SDS011;63210;53.370;6.770;2024-02-21T03:34:56;24.40;;;6.25;;
48849;SDS011;63210;53.370;6.770;2024-02-21T03:37:28;34.78;;;7.72;;
48849;SDS011;63210;53.370;6.770;2024-02-21T03:39:53;24.65;;;6.82;;
48849;SDS011;63210;53.370;6.770;2024-02-21T03:42:18;31.98;;;7.13;;
48849;SDS011;63210;53.370;6.770;2024-02-21T03:44:44;26.65;;;7.43;;
48849;SDS011;63210;53.370;6.770;2024-02-21T03:47:09;25.05;;;6.07;;
48849;SDS011;63210;53.370;6.770;2024-02-21T03:49:39;36.85;;;6.88;;
48849;SDS011;63210;53.370;6.770;2024-02-21T03:52:06;32.15;;;6.93;;
48849;SDS011;63210;53.370;6.770;2024-02-21T03:54:40;41.60;;;9.23;;
48849;SDS011;63210;53.370;6.770;2024-02-21T03:57:12;23.83;;;6.22;;
48849;SDS011;63210;53.370;6.770;2024-02-21T04:02:08;21.33;;;6.10;;
48849;SDS011;63210;53.370;6.770;2024-02-21T04:04:42;30.50;;;7.00;;
48849;SDS011;63210;53.370;6.770;2024-02-21T04:07:08;33.53;;;7.95;;
48849;SDS011;63210;53.370;6.770;2024-02-21T04:09:33;33.72;;;8.38;;
48849;SDS011;63210;53.370;6.770;2024-02-21T04:11:59;36.00;;;7.28;;
48849;SDS011;63210;53.370;6.770;2024-02-21T04:14:30;27.45;;;5.75;;
48849;SDS011;63210;53.370;6.770;2024-02-21T04:17:10;34.25;;;7.93;;
48849;SDS011;63210;53.370;6.770;2024-02-21T04:19:36;29.00;;;6.38;;
48849;SDS011;63210;53.370;6.770;2024-02-21T04:24:41;31.13;;;6.57;;
48849;SDS011;63210;53.370;6.770;2024-02-21T04:27:07;29.48;;;7.70;;
48849;SDS011;63210;53.370;6.770;2024-02-21T04:29:47;37.38;;;7.28;;
48849;SDS011;63210;53.370;6.770;2024-02-21T04:32:12;22.40;;;6.90;;
48849;SDS011;63210;53.370;6.770;2024-02-21T04:34:40;26.80;;;6.40;;
48849;SDS011;63210;53.370;6.770;2024-02-21T04:37:06;35.03;;;7.63;;
48849;SDS011;63210;53.370;6.770;2024-02-21T04:39:34;32.35;;;6.43;;
48849;SDS011;63210;53.370;6.770;2024-02-21T04:42:01;29.25;;;8.15;;
48849;SDS011;63210;53.370;6.770;2024-02-21T04:44:29;28.10;;;6.93;;
48849;SDS011;63210;53.370;6.770;2024-02-21T04:47:10;28.02;;;7.47;;
48849;SDS011;63210;53.370;6.770;2024-02-21T04:49:36;35.65;;;8.07;;
48849;SDS011;63210;53.370;6.770;2024-02-21T04:52:02;39.22;;;8.68;;
48849;SDS011;63210;53.370;6.770;2024-02-21T04:54:28;39.35;;;7.60;;
48849;SDS011;63210;53.370;6.770;2024-02-21T04:57:00;28.92;;;8.27;;
48849;SDS011;63210;53.370;6.770;2024-02-21T04:59:28;27.35;;;7.40;;
48849;SDS011;63210;53.370;6.770;2024-02-21T05:01:55;30.50;;;7.32;;
48849;SDS011;63210;53.370;6.770;2024-02-21T05:04:21;30.70;;;7.57;;
48849;SDS011;63210;53.370;6.770;2024-02-21T05:06:49;33.85;;;8.15;;
48849;SDS011;63210;53.370;6.770;2024-02-21T05:09:15;36.45;;;8.23;;
48849;SDS011;63210;53.370;6.770;2024-02-21T05:11:41;24.60;;;7.68;;
48849;SDS011;63210;53.370;6.770;2024-02-21T05:14:06;28.90;;;8.07;;
48849;SDS011;63210;53.370;6.770;2024-02-21T05:16:39;29.63;;;7.53;;
48849;SDS011;63210;53.370;6.770;2024-02-21T05:19:04;33.28;;;7.95;;
48849;SDS011;63210;53.370;6.770;2024-02-21T05:21:30;33.38;;;6.82;;
48849;SDS011;63210;53.370;6.770;2024-02-21T05:26:31;32.38;;;7.47;;
48849;SDS011;63210;53.370;6.770;2024-02-21T05:29:00;28.02;;;7.15;;
48849;SDS011;63210;53.370;6.770;2024-02-21T05:31:25;26.50;;;6.28;;
48849;SDS011;63210;53.370;6.770;2024-02-21T05:33:51;25.60;;;7.32;;
48849;SDS011;63210;53.370;6.770;2024-02-21T05:36:21;31.52;;;6.75;;
48849;SDS011;63210;53.370;6.770;2024-02-21T05:38:47;27.98;;;6.80;;
48849;SDS011;63210;53.370;6.770;2024-02-21T05:41:12;27.77;;;6.80;;
48849;SDS011;63210;53.370;6.770;2024-02-21T05:43:38;27.80;;;6.13;;
48849;SDS011;63210;53.370;6.770;2024-02-21T05:46:07;31.33;;;6.70;;
48849;SDS011;63210;53.370;6.770;2024-02-21T05:48:32;30.73;;;6.68;;
48849;SDS011;63210;53.370;6.770;2024-02-21T05:51:01;24.60;;;6.30;;
48849;SDS011;63210;53.370;6.770;2024-02-21T05:53:31;27.83;;;6.07;;
48849;SDS011;63210;53.370;6.770;2024-02-21T05:55:56;32.22;;;6.55;;
48849;SDS011;63210;53.370;6.770;2024-02-21T05:58:28;32.05;;;7.10;;
48849;SDS011;63210;53.370;6.770;2024-02-21T06:01:02;33.17;;;6.57;;
48849;SDS011;63210;53.370;6.770;2024-02-21T06:03:31;42.30;;;7.50;;
48849;SDS011;63210;53.370;6.770;2024-02-21T06:09:26;22.83;;;5.78;;
48849;SDS011;63210;53.370;6.770;2024-02-21T06:11:55;31.70;;;6.82;;
48849;SDS011;63210;53.370;6.770;2024-02-21T06:14:25;35.78;;;7.45;;
48849;SDS011;63210;53.370;6.770;2024-02-21T06:17:00;26.15;;;7.95;;
48849;SDS011;63210;53.370;6.770;2024-02-21T06:19:26;30.50;;;7.30;;
48849;SDS011;63210;53.370;6.770;2024-02-21T06:21:52;36.97;;;7.38;;
48849;SDS011;63210;53.370;6.770;2024-02-21T06:24:20;37.30;;;7.18;;
48849;SDS011;63210;53.370;6.770;2024-02-21T06:26:45;33.22;;;8.73;;
48849;SDS011;63210;53.370;6.770;2024-02-21T06:29:11;28.02;;;7.88;;
48849;SDS011;63210;53.370;6.770;2024-02-21T06:31:42;29.38;;;6.63;;
48849;SDS011;63210;53.370;6.770;2024-02-21T06:34:13;33.60;;;6.55;;
48849;SDS011;63210;53.370;6.770;2024-02-21T06:36:52;28.20;;;7.43;;
48849;SDS011;63210;53.370;6.770;2024-02-21T06:39:18;29.05;;;7.07;;
48849;SDS011;63210;53.370;6.770;2024-02-21T06:41:43;33.67;;;7.50;;
48849;SDS011;63210;53.370;6.770;2024-02-21T06:44:15;37.17;;;12.38;;
48849;SDS011;63210;53.370;6.770;2024-02-21T06:46:49;48.80;;;23.98;;
48849;SDS011;63210;53.370;6.770;2024-02-21T06:49:14;35.58;;;10.45;;
48849;SDS011;63210;53.370;6.770;2024-02-21T06:51:44;56.20;;;27.73;;
48849;SDS011;63210;53.370;6.770;2024-02-21T06:54:16;34.45;;;10.20;;
48849;SDS011;63210;53.370;6.770;2024-02-21T06:56:44;39.65;;;10.88;;
48849;SDS011;63210;53.370;6.770;2024-02-21T06:59:14;45.55;;;9.60;;
48849;SDS011;63210;53.370;6.770;2024-02-21T07:01:47;34.85;;;10.30;;
48849;SDS011;63210;53.370;6.770;2024-02-21T07:04:13;36.00;;;10.65;;
48849;SDS011;63210;53.370;6.770;2024-02-21T07:06:40;42.00;;;14.52;;
48849;SDS011;63210;53.370;6.770;2024-02-21T07:09:08;36.67;;;9.40;;
48849;SDS011;63210;53.370;6.770;2024-02-21T07:11:34;33.78;;;11.38;;
48849;SDS011;63210;53.370;6.770;2024-02-21T07:14:06;38.20;;;9.35;;
48849;SDS011;63210;53.370;6.770;2024-02-21T07:16:35;43.70;;;13.68;;
48849;SDS011;63210;53.370;6.770;2024-02-21T07:19:05;36.83;;;12.52;;
48849;SDS011;63210;53.370;6.770;2024-02-21T07:21:34;38.22;;;10.15;;
48849;SDS011;63210;53.370;6.770;2024-02-21T07:24:03;35.45;;;10.55;;
48849;SDS011;63210;53.370;6.770;2024-02-21T07:26:34;43.80;;;14.82;;
48849;SDS011;63210;53.370;6.770;2024-02-21T07:29:04;35.88;;;13.30;;
48849;SDS011;63210;53.370;6.770;2024-02-21T07:31:30;43.50;;;10.82;;
48849;SDS011;63210;53.370;6.770;2024-02-21T07:33:59;33.80;;;14.05;;
48849;SDS011;63210;53.370;6.770;2024-02-21T07:36:40;41.00;;;11.50;;
48849;SDS011;63210;53.370;6.770;2024-02-21T07:39:21;40.35;;;16.23;;
48849;SDS011;63210;53.370;6.770;2024-02-21T07:42:03;34.40;;;10.85;;
48849;SDS011;63210;53.370;6.770;2024-02-21T07:44:31;41.83;;;12.05;;
48849;SDS011;63210;53.370;6.770;2024-02-21T08:34:38;57.33;;;18.77;;
48849;SDS011;63210;53.370;6.770;2024-02-21T08:37:03;53.75;;;14.90;;
48849;SDS011;63210;53.370;6.770;2024-02-21T08:39:29;51.35;;;15.07;;
48849;SDS011;63210;53.370;6.770;2024-02-21T08:41:58;52.35;;;14.90;;
48849;SDS011;63210;53.370;6.770;2024-02-21T08:44:27;45.20;;;15.80;;
48849;SDS011;63210;53.370;6.770;2024-02-21T08:47:02;28.98;;;10.98;;
48849;SDS011;63210;53.370;6.770;2024-02-21T08:49:30;31.55;;;11.70;;
48849;SDS011;63210;53.370;6.770;2024-02-21T08:52:00;27.10;;;8.48;;
48849;SDS011;63210;53.370;6.770;2024-02-21T08:54:29;30.55;;;7.72;;
48849;SDS011;63210;53.370;6.770;2024-02-21T08:56:58;26.85;;;8.55;;
48849;SDS011;63210;53.370;6.770;2024-02-21T08:59:23;29.92;;;8.00;;
48849;SDS011;63210;53.370;6.770;2024-02-21T09:02:01;29.33;;;11.63;;
48849;SDS011;63210;53.370;6.770;2024-02-21T09:04:32;24.35;;;9.27;;
48849;SDS011;63210;53.370;6.770;2024-02-21T09:07:20;27.27;;;9.68;;
48849;SDS011;63210;53.370;6.770;2024-02-21T09:09:49;28.50;;;10.50;;
48849;SDS011;63210;53.370;6.770;2024-02-21T09:12:17;30.50;;;9.52;;
48849;SDS011;63210;53.370;6.770;2024-02-21T09:14:48;23.17;;;9.40;;
48849;SDS011;63210;53.370;6.770;2024-02-21T09:17:21;24.95;;;10.40;;
48849;SDS011;63210;53.370;6.770;2024-02-21T09:19:48;28.33;;;10.95;;
48849;SDS011;63210;53.370;6.770;2024-02-21T10:00:16;32.20;;;14.27;;
48849;SDS011;63210;53.370;6.770;2024-02-21T10:02:48;130.35;;;73.85;;
48849;SDS011;63210;53.370;6.770;2024-02-21T10:05:15;50.22;;;32.78;;
48849;SDS011;63210;53.370;6.770;2024-02-21T10:07:42;49.17;;;33.50;;
48849;SDS011;63210;53.370;6.770;2024-02-21T10:10:07;32.03;;;17.08;;
48849;SDS011;63210;53.370;6.770;2024-02-21T10:12:33;33.17;;;18.42;;
48849;SDS011;63210;53.370;6.770;2024-02-21T10:15:02;34.55;;;17.77;;
48849;SDS011;63210;53.370;6.770;2024-02-21T10:17:38;35.97;;;22.20;;
48849;SDS011;63210;53.370;6.770;2024-02-21T10:20:09;37.28;;;20.48;;
48849;SDS011;63210;53.370;6.770;2024-02-21T10:22:35;44.42;;;32.20;;
48849;SDS011;63210;53.370;6.770;2024-02-21T10:25:08;35.90;;;24.83;;
48849;SDS011;63210;53.370;6.770;2024-02-21T10:27:34;29.38;;;16.63;;
48849;SDS011;63210;53.370;6.770;2024-02-21T10:29:59;34.95;;;17.38;;
48849;SDS011;63210;53.370;6.770;2024-02-21T10:32:26;25.98;;;16.33;;
48849;SDS011;63210;53.370;6.770;2024-02-21T10:35:00;28.73;;;16.45;;
48849;SDS011;63210;53.370;6.770;2024-02-21T10:37:29;28.42;;;15.60;;
48849;SDS011;63210;53.370;6.770;2024-02-21T10:39:54;30.83;;;16.33;;
48849;SDS011;63210;53.370;6.770;2024-02-21T10:42:23;32.67;;;18.58;;
48849;SDS011;63210;53.370;6.770;2024-02-21T10:44:53;34.20;;;19.10;;
48849;SDS011;63210;53.370;6.770;2024-02-21T10:47:22;29.25;;;17.10;;
48849;SDS011;63210;53.370;6.770;2024-02-21T10:49:56;29.20;;;17.30;;
48849;SDS011;63210;53.370;6.770;2024-02-21T10:57:22;32.00;;;19.65;;
48849;SDS011;63210;53.370;6.770;2024-02-21T10:59:55;29.02;;;17.25;;
48849;SDS011;63210;53.370;6.770;2024-02-21T11:02:20;30.42;;;21.80;;
48849;SDS011;63210;53.370;6.770;2024-02-21T11:04:58;30.85;;;18.65;;
48849;SDS011;63210;53.370;6.770;2024-02-21T11:07:24;25.70;;;17.40;;
48849;SDS011;63210;53.370;6.770;2024-02-21T11:09:53;32.47;;;22.52;;
48849;SDS011;63210;53.370;6.770;2024-02-21T11:12:28;30.75;;;19.83;;
48849;SDS011;63210;53.370;6.770;2024-02-21T11:15:03;32.05;;;19.00;;
48849;SDS011;63210;53.370;6.770;2024-02-21T11:17:35;25.92;;;17.73;;
48849;SDS011;63210;53.370;6.770;2024-02-21T11:20:11;32.20;;;18.63;;
48849;SDS011;63210;53.370;6.770;2024-02-21T11:22:41;33.47;;;20.08;;
48849;SDS011;63210;53.370;6.770;2024-02-21T11:25:08;36.20;;;22.43;;
48849;SDS011;63210;53.370;6.770;2024-02-21T11:28:00;28.33;;;19.02;;
48849;SDS011;63210;53.370;6.770;2024-02-21T11:30:29;33.83;;;22.23;;
48849;SDS011;63210;53.370;6.770;2024-02-21T11:33:03;29.00;;;20.38;;
48849;SDS011;63210;53.370;6.770;2024-02-21T11:35:36;34.13;;;20.35;;
48849;SDS011;63210;53.370;6.770;2024-02-21T11:38:34;30.90;;;20.33;;
48849;SDS011;63210;53.370;6.770;2024-02-21T11:41:00;22.20;;;16.27;;
48849;SDS011;63210;53.370;6.770;2024-02-21T11:43:33;28.52;;;18.35;;
48849;SDS011;63210;53.370;6.770;2024-02-21T11:45:59;32.22;;;18.85;;
48849;SDS011;63210;53.370;6.770;2024-02-21T11:48:31;26.83;;;15.50;;
48849;SDS011;63210;53.370;6.770;2024-02-21T11:51:06;28.17;;;17.10;;
48849;SDS011;63210;53.370;6.770;2024-02-21T11:53:36;30.83;;;20.42;;
48849;SDS011;63210;53.370;6.770;2024-02-21T11:56:24;30.02;;;18.17;;
48849;SDS011;63210;53.370;6.770;2024-02-21T11:58:52;25.88;;;15.23;;
48849;SDS011;63210;53.370;6.770;2024-02-21T12:01:18;21.98;;;14.98;;
48849;SDS011;63210;53.370;6.770;2024-02-21T12:03:47;24.75;;;15.45;;
48849;SDS011;63210;53.370;6.770;2024-02-21T12:06:17;27.20;;;16.02;;
48849;SDS011;63210;53.370;6.770;2024-02-21T12:08:47;21.70;;;14.10;;
48849;SDS011;63210;53.370;6.770;2024-02-21T12:11:19;28.48;;;20.38;;
48849;SDS011;63210;53.370;6.770;2024-02-21T12:13:46;26.00;;;17.38;;
48849;SDS011;63210;53.370;6.770;2024-02-21T12:16:14;25.20;;;13.80;;
48849;SDS011;63210;53.370;6.770;2024-02-21T12:18:40;21.73;;;15.80;;
48849;SDS011;63210;53.370;6.770;2024-02-21T12:21:18;35.70;;;23.67;;
48849;SDS011;63210;53.370;6.770;2024-02-21T12:23:43;21.98;;;13.82;;
48849;SDS011;63210;53.370;6.770;2024-02-21T12:26:12;24.05;;;14.02;;
48849;SDS011;63210;53.370;6.770;2024-02-21T12:28:43;23.35;;;14.57;;
48849;SDS011;63210;53.370;6.770;2024-02-21T12:31:08;22.27;;;14.30;;
48849;SDS011;63210;53.370;6.770;2024-02-21T12:33:35;19.35;;;13.40;;
48849;SDS011;63210;53.370;6.770;2024-02-21T12:36:02;16.73;;;10.02;;
48849;SDS011;63210;53.370;6.770;2024-02-21T12:38:29;21.00;;;13.35;;
48849;SDS011;63210;53.370;6.770;2024-02-21T12:40:54;19.60;;;12.35;;
48849;SDS011;63210;53.370;6.770;2024-02-21T12:43:23;20.17;;;11.63;;
48849;SDS011;63210;53.370;6.770;2024-02-21T12:46:02;25.88;;;13.32;;
48849;SDS011;63210;53.370;6.770;2024-02-21T12:48:29;18.65;;;11.55;;
48849;SDS011;63210;53.370;6.770;2024-02-21T12:51:00;17.80;;;10.00;;
48849;SDS011;63210;53.370;6.770;2024-02-21T12:53:26;18.25;;;9.55;;
48849;SDS011;63210;53.370;6.770;2024-02-21T12:55:52;18.17;;;11.90;;
48849;SDS011;63210;53.370;6.770;2024-02-21T12:58:19;20.35;;;14.25;;
48849;SDS011;63210;53.370;6.770;2024-02-21T13:01:02;21.38;;;12.18;;
48849;SDS011;63210;53.370;6.770;2024-02-21T13:03:28;17.70;;;12.50;;
48849;SDS011;63210;53.370;6.770;2024-02-21T13:05:58;18.73;;;11.00;;
48849;SDS011;63210;53.370;6.770;2024-02-21T13:08:28;18.67;;;10.45;;
48849;SDS011;63210;53.370;6.770;2024-02-21T13:10:53;17.77;;;10.73;;
48849;SDS011;63210;53.370;6.770;2024-02-21T13:13:24;22.58;;;11.02;;
48849;SDS011;63210;53.370;6.770;2024-02-21T13:15:54;16.55;;;11.05;;
48849;SDS011;63210;53.370;6.770;2024-02-21T13:18:22;20.42;;;11.27;;
48849;SDS011;63210;53.370;6.770;2024-02-21T13:20:47;14.77;;;9.27;;
48849;SDS011;63210;53.370;6.770;2024-02-21T13:23:13;16.70;;;10.85;;
48849;SDS011;63210;53.370;6.770;2024-02-21T13:25:54;15.23;;;10.85;;
48849;SDS011;63210;53.370;6.770;2024-02-21T13:28:22;20.83;;;10.45;;
48849;SDS011;63210;53.370;6.770;2024-02-21T13:30:48;17.52;;;10.90;;
48849;SDS011;63210;53.370;6.770;2024-02-21T13:33:15;16.75;;;10.20;;
48849;SDS011;63210;53.370;6.770;2024-02-21T13:35:43;17.95;;;9.43;;
48849;SDS011;63210;53.370;6.770;2024-02-21T13:38:09;18.08;;;11.23;;
48849;SDS011;63210;53.370;6.770;2024-02-21T13:40:35;18.95;;;12.30;;
48849;SDS011;63210;53.370;6.770;2024-02-21T13:45:55;15.55;;;9.45;;
48849;SDS011;63210;53.370;6.770;2024-02-21T13:48:50;14.48;;;9.45;;
48849;SDS011;63210;53.370;6.770;2024-02-21T13:51:25;13.18;;;8.48;;
48849;SDS011;63210;53.370;6.770;2024-02-21T13:53:50;15.07;;;9.35;;
48849;SDS011;63210;53.370;6.770;2024-02-21T13:56:16;12.88;;;8.38;;
48849;SDS011;63210;53.370;6.770;2024-02-21T13:58:49;12.63;;;8.30;;
48849;SDS011;63210;53.370;6.770;2024-02-21T14:01:23;13.32;;;7.53;;
48849;SDS011;63210;53.370;6.770;2024-02-21T14:03:49;11.30;;;8.57;;
48849;SDS011;63210;53.370;6.770;2024-02-21T14:08:48;10.48;;;7.05;;
48849;SDS011;63210;53.370;6.770;2024-02-21T14:11:22;9.07;;;6.18;;
48849;SDS011;63210;53.370;6.770;2024-02-21T14:13:54;8.57;;;6.30;;
48849;SDS011;63210;53.370;6.770;2024-02-21T14:16:22;10.43;;;6.40;;
48849;SDS011;63210;53.370;6.770;2024-02-21T14:19:13;13.37;;;6.90;;
48849;SDS011;63210;53.370;6.770;2024-02-21T14:21:38;11.02;;;6.35;;
48849;SDS011;63210;53.370;6.770;2024-02-21T14:24:04;10.30;;;6.82;;
48849;SDS011;63210;53.370;6.770;2024-02-21T14:26:34;9.20;;;6.32;;
48849;SDS011;63210;53.370;6.770;2024-02-21T14:29:00;8.98;;;6.93;;
48849;SDS011;63210;53.370;6.770;2024-02-21T14:31:28;10.68;;;6.35;;
48849;SDS011;63210;53.370;6.770;2024-02-21T14:33:55;10.05;;;6.07;;
48849;SDS011;63210;53.370;6.770;2024-02-21T14:36:20;11.90;;;7.18;;
48849;SDS011;63210;53.370;6.770;2024-02-21T14:38:45;9.55;;;6.45;;
48849;SDS011;63210;53.370;6.770;2024-02-21T14:41:14;11.55;;;6.60;;
48849;SDS011;63210;53.370;6.770;2024-02-21T14:43:42;9.60;;;6.65;;
48849;SDS011;63210;53.370;6.770;2024-02-21T14:46:14;9.60;;;6.65;;
48849;SDS011;63210;53.370;6.770;2024-02-21T14:48:43;8.02;;;6.70;;
48849;SDS011;63210;53.370;6.770;2024-02-21T14:51:11;11.27;;;7.05;;
48849;SDS011;63210;53.370;6.770;2024-02-21T14:53:37;9.45;;;8.38;;
48849;SDS011;63210;53.370;6.770;2024-02-21T14:56:04;11.85;;;7.55;;
48849;SDS011;63210;53.370;6.770;2024-02-21T14:58:29;13.43;;;6.93;;
48849;SDS011;63210;53.370;6.770;2024-02-21T15:00:56;12.98;;;7.68;;
48849;SDS011;63210;53.370;6.770;2024-02-21T15:03:21;11.65;;;7.82;;
48849;SDS011;63210;53.370;6.770;2024-02-21T15:05:47;7.43;;;6.10;;
48849;SDS011;63210;53.370;6.770;2024-02-21T15:08:15;8.63;;;6.15;;
48849;SDS011;63210;53.370;6.770;2024-02-21T15:10:43;11.70;;;7.15;;
48849;SDS011;63210;53.370;6.770;2024-02-21T15:13:08;14.00;;;7.53;;
48849;SDS011;63210;53.370;6.770;2024-02-21T15:15:35;11.57;;;6.32;;
48849;SDS011;63210;53.370;6.770;2024-02-21T15:18:03;11.35;;;7.95;;
48849;SDS011;63210;53.370;6.770;2024-02-21T15:20:29;10.02;;;6.90;;
48849;SDS011;63210;53.370;6.770;2024-02-21T15:22:57;14.73;;;7.28;;
48849;SDS011;63210;53.370;6.770;2024-02-21T15:25:23;11.40;;;7.78;;
48849;SDS011;63210;53.370;6.770;2024-02-21T15:27:50;10.90;;;6.80;;
48849;SDS011;63210;53.370;6.770;2024-02-21T15:30:15;9.30;;;6.72;;
48849;SDS011;63210;53.370;6.770;2024-02-21T15:32:41;9.95;;;6.20;;
48849;SDS011;63210;53.370;6.770;2024-02-21T15:35:09;11.55;;;7.35;;
48849;SDS011;63210;53.370;6.770;2024-02-21T15:37:35;15.20;;;9.23;;
48849;SDS011;63210;53.370;6.770;2024-02-21T15:40:01;14.32;;;9.02;;
48849;SDS011;63210;53.370;6.770;2024-02-21T15:42:27;11.85;;;6.75;;
48849;SDS011;63210;53.370;6.770;2024-02-21T15:44:58;13.10;;;9.10;;
48849;SDS011;63210;53.370;6.770;2024-02-21T15:47:26;13.07;;;7.07;;
48849;SDS011;63210;53.370;6.770;2024-02-21T15:49:55;11.82;;;7.50;;
48849;SDS011;63210;53.370;6.770;2024-02-21T15:52:20;10.40;;;6.75;;
48849;SDS011;63210;53.370;6.770;2024-02-21T15:54:53;9.77;;;6.25;;
48849;SDS011;63210;53.370;6.770;2024-02-21T15:57:22;12.00;;;7.28;;
48849;SDS011;63210;53.370;6.770;2024-02-21T15:59:47;15.63;;;7.60;;
48849;SDS011;63210;53.370;6.770;2024-02-21T16:02:15;15.68;;;10.10;;
48849;SDS011;63210;53.370;6.770;2024-02-21T16:04:41;25.88;;;14.90;;
48849;SDS011;63210;53.370;6.770;2024-02-21T16:07:11;21.13;;;11.30;;
48849;SDS011;63210;53.370;6.770;2024-02-21T16:12:59;69.40;;;37.30;;
48849;SDS011;63210;53.370;6.770;2024-02-21T16:15:43;51.00;;;30.05;;
48849;SDS011;63210;53.370;6.770;2024-02-21T16:18:12;16.77;;;12.60;;
48849;SDS011;63210;53.370;6.770;2024-02-21T16:20:37;15.43;;;9.48;;
48849;SDS011;63210;53.370;6.770;2024-02-21T16:23:02;15.90;;;9.07;;
48849;SDS011;63210;53.370;6.770;2024-02-21T16:25:35;16.52;;;9.13;;
48849;SDS011;63210;53.370;6.770;2024-02-21T16:28:06;14.88;;;7.85;;
48849;SDS011;63210;53.370;6.770;2024-02-21T16:30:34;13.73;;;7.38;;
48849;SDS011;63210;53.370;6.770;2024-02-21T16:33:00;13.75;;;7.45;;